VYYY

Yangon International Airport

Airport
ICAO code
VYYY
IATA Code
RGN
Summary
ICAO Region
APAC
ICAO Territory
Location

Mingaladon, Yangon Region

Serving
Yangon
Elevation
109 ft
Coordinates
16° 54' 35" N , 96° 8' 6" E
KCC
Metar
Observation
VYYY 071930Z 06002KT 6000 BKN015 FEW020CB 26/25 Q1010
Station
Yangon
Date/Time
2022-10-07 19:30:00
Wind direction
60°
Wind speed
02 kts
Lowest cloud amount
broken clouds
Temperature
26°C
Dew point
25°C
Humidity
94%
QNH
1010 hPa
Weather condition
n/a

Yangon International Airport, located in Mingaladon, 15 km north of downtown Yangon, Myanmar.

Climatology

Tropical Monsoon climate (Köppen climate classification Am)

SKYbrary Partners:

Safety knowledge contributed by: